createdAt,value
2018-12-03T00:02:19.124Z,18.63
2018-12-03T00:04:52.289Z,18.27
2018-12-03T00:07:26.634Z,16.87
2018-12-03T00:10:03.870Z,14.67
2018-12-03T00:12:37.988Z,13.57
2018-12-03T00:15:18.566Z,13.83
2018-12-03T00:17:53.102Z,11.90
2018-12-03T00:20:26.140Z,12.30
2018-12-03T00:22:59.343Z,8.40
2018-12-03T00:25:34.499Z,7.50
2018-12-03T00:28:07.684Z,7.90
2018-12-03T00:30:41.654Z,6.93
2018-12-03T00:33:15.999Z,7.37
2018-12-03T00:35:49.258Z,6.23
2018-12-03T00:38:22.836Z,5.13
2018-12-03T00:40:57.403Z,5.77
2018-12-03T00:43:30.392Z,4.13
2018-12-03T00:46:03.367Z,4.43
2018-12-03T00:48:36.970Z,4.53
2018-12-03T00:51:09.961Z,3.75
2018-12-03T00:53:42.891Z,5.30
2018-12-03T00:56:16.372Z,3.13
2018-12-03T00:58:49.317Z,5.50
2018-12-03T01:01:22.356Z,4.13
2018-12-03T01:03:55.898Z,3.40
2018-12-03T01:06:29.220Z,6.37
2018-12-03T01:09:02.420Z,4.97
2018-12-03T01:11:36.125Z,4.87
2018-12-03T01:14:08.882Z,6.07
2018-12-03T01:16:41.892Z,6.37
2018-12-03T01:19:16.153Z,5.27
2018-12-03T01:21:49.369Z,7.30
2018-12-03T01:24:22.252Z,7.87
2018-12-03T01:26:55.922Z,7.47
2018-12-03T01:29:28.836Z,9.40
2018-12-03T01:32:02.136Z,7.07
2018-12-03T01:34:35.623Z,7.73
2018-12-03T01:37:08.669Z,5.50
2018-12-03T01:39:41.892Z,8.27
2018-12-03T01:42:15.440Z,6.13
2018-12-03T01:44:48.369Z,7.60
2018-12-03T01:47:22.312Z,6.53
2018-12-03T01:49:55.829Z,7.73
2018-12-03T01:52:29.821Z,9.33
2018-12-03T01:55:02.874Z,10.00
2018-12-03T01:57:36.581Z,7.00
2018-12-03T02:00:18.865Z,7.97
2018-12-03T02:02:51.874Z,8.60
2018-12-03T02:05:25.667Z,6.70
2018-12-03T02:07:58.617Z,7.47
2018-12-03T02:10:31.611Z,6.40
2018-12-03T02:13:05.404Z,9.20
2018-12-03T02:15:38.349Z,9.50
2018-12-03T02:18:11.393Z,10.00
2018-12-03T02:20:44.884Z,12.10
2018-12-03T02:23:18.049Z,8.90
2018-12-03T02:25:51.019Z,11.17
2018-12-03T02:28:24.620Z,12.87
2018-12-03T02:30:57.641Z,6.37
2018-12-03T02:33:30.676Z,11.17
2018-12-03T02:36:04.002Z,8.67
2018-12-03T02:38:37.025Z,7.37
2018-12-03T02:41:09.986Z,12.23
2018-12-03T02:43:45.449Z,8.97
2018-12-03T02:46:18.363Z,7.35
2018-12-03T02:48:51.548Z,9.90
2018-12-03T02:51:24.923Z,17.30
2018-12-03T02:53:57.123Z,7.80
2018-12-03T02:56:31.561Z,11.27
2018-12-03T02:59:05.173Z,9.87
2018-12-03T03:01:38.051Z,11.83
2018-12-03T03:04:11.125Z,12.75
2018-12-03T03:06:44.497Z,11.50
2018-12-03T03:09:17.503Z,9.63
2018-12-03T03:11:50.461Z,9.60
2018-12-03T03:14:25.109Z,9.43
2018-12-03T03:17:01.109Z,10.57
2018-12-03T03:19:34.156Z,11.73
2018-12-03T03:22:08.656Z,10.43
2018-12-03T03:24:41.740Z,11.63
2018-12-03T03:27:14.728Z,8.80
2018-12-03T03:29:48.423Z,12.10
2018-12-03T03:32:21.335Z,9.60
2018-12-03T03:34:54.571Z,10.37
2018-12-03T03:37:28.123Z,12.60
2018-12-03T03:40:01.145Z,10.67
2018-12-03T03:42:34.063Z,11.55
2018-12-03T03:45:19.653Z,11.67
2018-12-03T03:47:52.557Z,11.87
2018-12-03T03:50:25.531Z,10.73
2018-12-03T03:52:59.827Z,11.80
2018-12-03T03:55:32.855Z,11.13
2018-12-03T03:58:07.859Z,10.25
2018-12-03T04:00:45.866Z,9.90
2018-12-03T04:03:19.701Z,11.00
2018-12-03T04:05:53.299Z,14.73
2018-12-03T04:08:26.545Z,14.13
2018-12-03T04:10:59.479Z,10.90
2018-12-03T04:13:32.857Z,7.87
2018-12-03T04:16:06.137Z,6.03
2018-12-03T04:18:39.071Z,6.53
2018-12-03T04:21:12.953Z,9.60
2018-12-03T04:23:46.120Z,9.77
2018-12-03T04:26:19.042Z,5.47
2018-12-03T04:28:53.176Z,6.40
2018-12-03T04:31:26.212Z,7.43
2018-12-03T04:33:59.258Z,7.23
2018-12-03T04:36:32.810Z,6.37
2018-12-03T04:39:08.332Z,7.97
2018-12-03T04:41:41.526Z,5.53
2018-12-03T04:44:15.931Z,8.43
2018-12-03T04:46:48.851Z,3.53
2018-12-03T04:49:22.826Z,3.07
2018-12-03T04:51:57.305Z,4.13
2018-12-03T04:54:30.310Z,3.70
2018-12-03T04:57:03.279Z,5.50
2018-12-03T04:59:36.725Z,5.43
2018-12-03T05:02:09.639Z,4.47
2018-12-03T05:04:42.712Z,3.50
2018-12-03T05:07:16.319Z,4.00
2018-12-03T05:09:49.307Z,3.53
2018-12-03T05:12:22.224Z,5.30
2018-12-03T05:14:55.682Z,3.77
2018-12-03T05:17:28.609Z,3.10
2018-12-03T05:20:02.994Z,2.80
2018-12-03T05:22:37.450Z,3.50
2018-12-03T05:25:11.541Z,3.20
2018-12-03T05:27:44.470Z,3.05
2018-12-03T05:30:17.808Z,4.03
2018-12-03T05:32:50.864Z,3.17
2018-12-03T05:35:27.356Z,2.37
2018-12-03T05:38:00.732Z,4.67
2018-12-03T05:40:34.105Z,3.40
2018-12-03T05:43:07.591Z,3.40
2018-12-03T05:45:40.751Z,3.97
2018-12-03T05:48:14.396Z,4.03
2018-12-03T05:50:47.853Z,2.93
2018-12-03T05:53:22.183Z,3.50
2018-12-03T05:55:56.000Z,3.97
2018-12-03T05:58:28.911Z,3.60
2018-12-03T06:01:02.273Z,4.35
2018-12-03T06:03:35.755Z,4.68
2018-12-03T06:06:08.700Z,3.60
2018-12-03T06:08:41.737Z,2.80
2018-12-03T06:11:14.663Z,4.77
2018-12-03T06:13:47.953Z,4.57
2018-12-03T06:16:21.072Z,5.63
2018-12-03T06:18:54.120Z,4.57
2018-12-03T06:21:28.664Z,4.70
2018-12-03T06:24:01.677Z,3.47
2018-12-03T06:26:34.915Z,4.37
2018-12-03T06:29:08.126Z,5.43
2018-12-03T06:31:41.272Z,8.80
2018-12-03T06:34:14.251Z,5.87
2018-12-03T06:36:47.252Z,8.20
2018-12-03T06:39:20.458Z,6.47
2018-12-03T06:41:54.092Z,8.27
2018-12-03T06:44:26.985Z,10.77
2018-12-03T06:47:01.604Z,6.33
2018-12-03T06:49:35.134Z,6.80
2018-12-03T06:52:08.190Z,7.57
2018-12-03T06:54:41.115Z,6.20
2018-12-03T06:57:14.734Z,9.27
2018-12-03T06:59:47.641Z,12.10
2018-12-03T07:02:21.283Z,6.63
2018-12-03T07:04:55.959Z,9.60
2018-12-03T07:07:28.911Z,7.47
2018-12-03T07:10:01.764Z,7.90
2018-12-03T07:12:34.751Z,6.37
2018-12-03T07:15:13.757Z,7.03
2018-12-03T07:17:47.075Z,8.20
2018-12-03T07:20:20.394Z,9.17
2018-12-03T07:22:54.306Z,7.27
2018-12-03T07:25:28.992Z,7.05
2018-12-03T07:28:02.705Z,6.37
2018-12-03T07:30:39.161Z,7.80
2018-12-03T07:33:12.915Z,7.53
2018-12-03T07:35:46.244Z,5.37
2018-12-03T07:38:19.371Z,8.80
2018-12-03T07:40:52.526Z,6.57
2018-12-03T07:43:26.179Z,6.57
2018-12-03T07:45:59.088Z,6.30
2018-12-03T07:48:32.257Z,9.50
2018-12-03T07:51:06.994Z,10.50
2018-12-03T07:53:40.171Z,10.15
2018-12-03T07:56:13.133Z,9.57
2018-12-03T07:58:46.802Z,8.90
2018-12-03T08:01:19.910Z,10.53
2018-12-03T08:03:53.686Z,13.45
2018-12-03T08:06:27.161Z,10.03
2018-12-03T08:09:01.808Z,10.63
2018-12-03T08:11:35.002Z,11.47
2018-12-03T08:14:09.769Z,14.00
2018-12-03T08:16:47.544Z,11.73
2018-12-03T08:19:20.649Z,12.37
2018-12-03T08:21:56.361Z,10.53
2018-12-03T08:24:31.224Z,11.57
2018-12-03T08:27:06.686Z,13.50
2018-12-03T08:29:42.600Z,12.05
2018-12-03T08:32:15.816Z,12.27
2018-12-03T08:34:49.670Z,10.40
2018-12-03T08:37:22.582Z,13.63
2018-12-03T08:39:55.613Z,13.97
2018-12-03T08:42:29.224Z,13.03
2018-12-03T08:45:04.545Z,10.13
2018-12-03T08:47:37.614Z,13.43
2018-12-03T08:50:38.984Z,13.60
2018-12-03T08:53:30.746Z,14.32
2018-12-03T08:56:26.460Z,13.27
2018-12-03T08:59:07.579Z,14.37
2018-12-03T09:02:05.866Z,14.97
2018-12-03T09:04:41.267Z,11.50
2018-12-03T09:07:25.477Z,15.67
2018-12-03T09:10:03.792Z,20.87
2018-12-03T09:12:43.548Z,17.67
2018-12-03T09:15:28.542Z,23.30
2018-12-03T09:18:06.819Z,15.70
2018-12-03T09:20:42.364Z,12.07
2018-12-03T09:23:20.801Z,16.23
2018-12-03T09:25:55.027Z,11.40
2018-12-03T09:28:33.213Z,17.77
2018-12-03T09:31:18.973Z,14.97
2018-12-03T09:34:02.456Z,19.70
2018-12-03T09:36:39.121Z,13.87
2018-12-03T09:39:29.303Z,17.30
2018-12-03T09:42:10.151Z,10.73
2018-12-03T09:44:43.580Z,15.63
2018-12-03T09:47:17.979Z,17.97
2018-12-03T09:49:51.696Z,15.80
2018-12-03T09:52:24.712Z,15.37
2018-12-03T09:55:00.141Z,14.87
2018-12-03T09:57:35.933Z,20.47
2018-12-03T10:00:19.219Z,20.17
2018-12-03T10:02:54.221Z,15.13
2018-12-03T10:05:36.760Z,19.90
2018-12-03T10:08:10.190Z,16.53
2018-12-03T10:10:58.638Z,21.83
2018-12-03T10:13:33.611Z,15.10
2018-12-03T10:16:15.307Z,14.53
2018-12-03T10:19:08.733Z,14.30
2018-12-03T10:21:58.138Z,20.40
2018-12-03T10:24:58.411Z,18.57
2018-12-03T10:27:34.514Z,16.43
2018-12-03T10:30:48.138Z,15.20
2018-12-03T10:33:40.578Z,15.90
2018-12-03T10:36:37.531Z,17.53
2018-12-03T10:39:32.842Z,17.73
2018-12-03T10:42:17.889Z,15.47
2018-12-03T10:44:52.543Z,18.03
2018-12-03T10:47:25.911Z,16.00
2018-12-03T10:49:59.895Z,15.27
2018-12-03T10:52:34.380Z,18.87
2018-12-03T10:55:11.440Z,14.47
2018-12-03T10:57:46.815Z,15.70
2018-12-03T11:00:26.420Z,15.30
2018-12-03T11:03:13.554Z,24.67
2018-12-03T11:06:13.164Z,12.60
2018-12-03T11:08:59.166Z,15.63
2018-12-03T11:11:32.658Z,12.37
2018-12-03T11:14:08.545Z,14.07
2018-12-03T11:16:41.677Z,14.07
2018-12-03T11:19:15.648Z,15.20
2018-12-03T11:21:49.506Z,21.80
2018-12-03T11:24:22.595Z,16.73
2018-12-03T11:27:00.798Z,18.10
2018-12-03T11:29:41.691Z,16.75
2018-12-03T11:32:21.343Z,18.57
2018-12-03T11:34:55.585Z,17.70
2018-12-03T11:37:30.164Z,13.83
2018-12-03T11:40:22.416Z,15.80
2018-12-03T11:42:57.838Z,14.40
2018-12-03T11:45:30.968Z,18.43
2018-12-03T11:48:06.631Z,16.23
2018-12-03T11:50:40.329Z,13.03
2018-12-03T11:53:14.412Z,14.27
2018-12-03T11:55:47.977Z,15.87
2018-12-03T11:58:21.931Z,14.63
2018-12-03T12:00:55.452Z,13.20
2018-12-03T12:03:29.436Z,16.40
2018-12-03T12:06:03.150Z,15.98
2018-12-03T12:08:36.607Z,15.77
2018-12-03T12:11:10.564Z,11.17
2018-12-03T12:13:43.641Z,15.07
2018-12-03T12:16:22.508Z,13.17
2018-12-03T12:18:56.351Z,12.63
2018-12-03T12:21:29.272Z,12.57
2018-12-03T12:24:02.871Z,13.98
2018-12-03T12:26:37.086Z,12.90
2018-12-03T12:29:10.779Z,16.50
2018-12-03T12:31:44.982Z,15.20
2018-12-03T12:34:19.025Z,13.03
2018-12-03T12:36:52.028Z,13.57
2018-12-03T12:39:25.634Z,13.37
2018-12-03T12:41:58.546Z,11.17
2018-12-03T12:44:31.798Z,15.23
2018-12-03T12:47:06.318Z,10.87
2018-12-03T12:49:39.651Z,14.70
2018-12-03T12:52:13.529Z,12.57
2018-12-03T12:54:48.631Z,10.57
2018-12-03T12:57:21.715Z,14.03
2018-12-03T12:59:55.380Z,12.40
2018-12-03T13:02:29.252Z,15.60
2018-12-03T13:05:02.586Z,14.83
2018-12-03T13:07:35.632Z,17.43
2018-12-03T13:10:14.705Z,11.93
2018-12-03T13:12:52.831Z,12.20
2018-12-03T13:15:27.044Z,8.40
2018-12-03T13:18:00.490Z,12.00
2018-12-03T13:20:34.251Z,14.10
2018-12-03T13:23:07.900Z,10.93
2018-12-03T13:25:42.485Z,14.03
2018-12-03T13:28:15.632Z,11.77
2018-12-03T13:30:48.672Z,13.43
2018-12-03T13:33:23.418Z,9.80
2018-12-03T13:35:59.346Z,11.20
2018-12-03T13:38:38.397Z,12.37
2018-12-03T13:41:22.764Z,10.73
2018-12-03T13:43:57.896Z,12.47
2018-12-03T13:46:31.479Z,14.27
2018-12-03T13:49:05.776Z,12.55
2018-12-03T13:51:41.200Z,12.23
2018-12-03T13:54:24.881Z,9.27
2018-12-03T13:56:58.698Z,10.85
2018-12-03T13:59:32.502Z,12.13
2018-12-03T14:02:27.608Z,9.60
2018-12-03T14:05:01.749Z,8.90
2018-12-03T14:07:53.053Z,9.30
2018-12-03T14:10:56.923Z,9.77
2018-12-03T14:14:05.280Z,13.00
2018-12-03T14:17:13.551Z,9.90
2018-12-03T14:19:56.391Z,5.80
2018-12-03T14:22:48.718Z,14.27
2018-12-03T14:25:25.876Z,10.17
2018-12-03T14:28:00.838Z,8.48
2018-12-03T14:30:34.847Z,9.90
2018-12-03T14:33:09.286Z,8.47
2018-12-03T14:35:45.554Z,9.63
2018-12-03T14:38:21.400Z,8.97
2018-12-03T14:40:54.803Z,12.83
2018-12-03T14:43:33.133Z,13.87
2018-12-03T14:46:07.581Z,10.53
2018-12-03T14:48:40.684Z,9.00
2018-12-03T14:51:14.297Z,11.40
2018-12-03T14:53:51.946Z,9.70
2018-12-03T14:56:30.259Z,9.23
2018-12-03T14:59:07.831Z,8.27
2018-12-03T15:01:41.875Z,14.50
2018-12-03T15:04:28.640Z,7.27
2018-12-03T15:07:20.809Z,8.80
2018-12-03T15:10:05.163Z,11.33
2018-12-03T15:12:48.667Z,9.77
2018-12-03T15:15:26.779Z,10.48
2018-12-03T15:18:11.762Z,7.73
2018-12-03T15:20:54.082Z,8.80
2018-12-03T15:23:37.614Z,10.47
2018-12-03T15:26:13.560Z,8.13
2018-12-03T15:28:53.545Z,13.40
2018-12-03T15:31:37.894Z,12.00
2018-12-03T15:34:11.764Z,8.53
2018-12-03T15:36:50.134Z,10.53
2018-12-03T15:39:43.344Z,9.73
2018-12-03T15:42:24.017Z,9.33
2018-12-03T15:45:00.658Z,9.20
2018-12-03T15:47:35.477Z,9.30
2018-12-03T15:50:10.603Z,10.77
2018-12-03T15:52:43.492Z,11.80
2018-12-03T15:55:20.246Z,10.43
2018-12-03T15:57:53.511Z,10.30
2018-12-03T16:00:29.453Z,12.07
2018-12-03T16:03:02.695Z,11.68
2018-12-03T16:05:38.627Z,10.87
2018-12-03T16:08:12.816Z,9.33
2018-12-03T16:10:52.340Z,11.50
2018-12-03T16:13:26.396Z,9.57
2018-12-03T16:15:59.508Z,8.17
2018-12-03T16:18:34.916Z,6.53
2018-12-03T16:21:14.044Z,5.32
2018-12-03T16:23:50.156Z,7.43
2018-12-03T16:26:26.238Z,6.47
2018-12-03T16:29:01.784Z,5.70
2018-12-03T16:31:36.866Z,7.03
2018-12-03T16:34:12.206Z,6.47
2018-12-03T16:36:47.326Z,6.40
2018-12-03T16:39:20.606Z,8.10
2018-12-03T16:41:54.114Z,5.87
2018-12-03T16:44:28.195Z,5.90
2018-12-03T16:47:02.115Z,5.60
2018-12-03T16:49:36.474Z,7.63
2018-12-03T16:52:10.343Z,6.57
2018-12-03T16:54:43.667Z,9.17
2018-12-03T16:57:24.099Z,6.40
2018-12-03T17:00:00.525Z,5.50
2018-12-03T17:02:36.447Z,6.03
2018-12-03T17:05:13.024Z,7.07
2018-12-03T17:07:48.025Z,6.80
2018-12-03T17:10:21.846Z,5.43
2018-12-03T17:12:56.820Z,5.17
2018-12-03T17:15:31.719Z,7.80
2018-12-03T17:18:06.886Z,6.23
2018-12-03T17:21:00.365Z,5.53
2018-12-03T17:24:07.162Z,10.20
2018-12-03T17:26:52.443Z,7.32
2018-12-03T17:29:25.508Z,10.13
2018-12-03T17:31:59.856Z,9.50
2018-12-03T17:34:35.584Z,9.13
2018-12-03T17:37:09.467Z,12.23
2018-12-03T17:39:43.074Z,18.87
2018-12-03T17:42:17.993Z,11.43
2018-12-03T17:44:52.897Z,9.03
2018-12-03T17:47:28.174Z,8.17
2018-12-03T17:50:01.444Z,9.90
2018-12-03T17:52:35.157Z,10.53
2018-12-03T17:55:09.207Z,12.43
2018-12-03T17:57:43.194Z,12.97
2018-12-03T18:00:18.361Z,15.23
2018-12-03T18:02:54.573Z,9.53
2018-12-03T18:05:31.657Z,10.17
2018-12-03T18:08:06.490Z,11.80
2018-12-03T18:10:45.939Z,12.83
2018-12-03T18:13:19.797Z,12.00
2018-12-03T18:15:56.913Z,10.00
2018-12-03T18:18:30.110Z,13.90
2018-12-03T18:21:07.613Z,9.20
2018-12-03T18:23:45.166Z,9.67
2018-12-03T18:26:18.710Z,11.47
2018-12-03T18:28:55.145Z,12.07
2018-12-03T18:31:29.449Z,12.00
2018-12-03T18:34:04.234Z,11.37
2018-12-03T18:36:42.444Z,12.80
2018-12-03T18:39:16.309Z,11.20
2018-12-03T18:41:52.171Z,11.97
2018-12-03T18:44:26.542Z,13.17
2018-12-03T18:47:00.685Z,9.57
2018-12-03T18:49:43.282Z,10.37
2018-12-03T18:52:18.689Z,13.77
2018-12-03T18:54:53.408Z,10.93
2018-12-03T18:57:30.446Z,9.03
2018-12-03T19:00:15.295Z,11.60
2018-12-03T19:02:53.250Z,16.10
2018-12-03T19:05:30.488Z,9.80
2018-12-03T19:08:08.834Z,11.23
2018-12-03T19:10:47.315Z,13.30
2018-12-03T19:13:21.677Z,10.83
2018-12-03T19:16:01.318Z,14.97
2018-12-03T19:18:44.185Z,12.03
2018-12-03T19:21:20.200Z,14.23
2018-12-03T19:23:53.699Z,14.82
2018-12-03T19:26:36.617Z,12.33
2018-12-03T19:29:13.263Z,11.80
2018-12-03T19:31:48.633Z,14.30
2018-12-03T19:34:30.964Z,12.83
2018-12-03T19:37:04.913Z,14.07
2018-12-03T19:39:40.496Z,20.40
2018-12-03T19:42:14.098Z,14.80
2018-12-03T19:44:52.185Z,12.27
2018-12-03T19:47:26.516Z,16.20
2018-12-03T19:49:59.750Z,16.43
2018-12-03T19:52:32.754Z,12.03
2018-12-03T19:55:10.668Z,18.57
2018-12-03T19:57:47.734Z,17.03
2018-12-03T20:00:21.396Z,13.97
2018-12-03T20:02:54.795Z,14.10
2018-12-03T20:05:28.687Z,14.10
2018-12-03T20:08:08.058Z,17.03
2018-12-03T20:10:46.314Z,14.90
2018-12-03T20:13:20.989Z,12.93
2018-12-03T20:15:55.508Z,17.37
2018-12-03T20:18:30.176Z,9.93
2018-12-03T20:21:16.386Z,16.67
2018-12-03T20:24:06.305Z,15.03
2018-12-03T20:27:18.205Z,15.47
2018-12-03T20:30:45.716Z,12.23
2018-12-03T20:34:09.019Z,19.30
2018-12-03T20:37:40.678Z,18.10
2018-12-03T20:40:55.059Z,14.13
2018-12-03T20:43:40.877Z,21.95
2018-12-03T20:46:34.440Z,20.57
2018-12-03T20:49:26.907Z,22.77
2018-12-03T20:52:28.587Z,21.60
2018-12-03T20:55:34.596Z,15.97
2018-12-03T20:58:07.736Z,20.23
2018-12-03T21:00:43.446Z,20.23
2018-12-03T21:03:17.482Z,20.30
2018-12-03T21:05:53.137Z,31.77
2018-12-03T21:08:26.578Z,23.93
2018-12-03T21:11:02.887Z,23.17
2018-12-03T21:13:37.367Z,21.07
2018-12-03T21:16:10.459Z,24.63
2018-12-03T21:18:48.162Z,24.33
2018-12-03T21:21:23.224Z,21.83
2018-12-03T21:23:56.446Z,28.67
2018-12-03T21:26:30.533Z,26.80
2018-12-03T21:29:03.568Z,25.77
2018-12-03T21:31:37.787Z,22.00
2018-12-03T21:34:12.426Z,25.33
2018-12-03T21:36:46.889Z,30.77
2018-12-03T21:39:20.771Z,28.37
2018-12-03T21:41:54.498Z,29.05
2018-12-03T21:44:28.552Z,26.63
2018-12-03T21:47:02.412Z,25.37
2018-12-03T21:49:36.009Z,26.50
2018-12-03T21:52:09.309Z,27.27
2018-12-03T21:54:42.635Z,26.62
2018-12-03T21:57:17.512Z,27.77
2018-12-03T21:59:56.750Z,26.27
2018-12-03T22:02:30.368Z,29.50
2018-12-03T22:05:04.319Z,27.70
2018-12-03T22:07:37.254Z,24.17
2018-12-03T22:10:10.622Z,28.10
2018-12-03T22:12:44.738Z,30.03
2018-12-03T22:15:18.033Z,30.37
2018-12-03T22:17:52.358Z,20.10
2018-12-03T22:20:26.885Z,22.93
2018-12-03T22:22:59.937Z,27.50
2018-12-03T22:25:33.703Z,24.33
2018-12-03T22:28:07.149Z,26.23
2018-12-03T22:30:40.876Z,28.93
2018-12-03T22:33:13.849Z,35.27
2018-12-03T22:35:48.155Z,34.63
2018-12-03T22:38:21.226Z,28.00
2018-12-03T22:40:54.409Z,31.30
2018-12-03T22:43:28.012Z,27.00
2018-12-03T22:46:00.965Z,23.87
2018-12-03T22:48:33.995Z,27.23
2018-12-03T22:51:10.230Z,24.23
2018-12-03T22:53:43.325Z,27.93
2018-12-03T22:56:16.528Z,25.67
2018-12-03T22:58:52.129Z,21.47
2018-12-03T23:01:26.064Z,30.83
2018-12-03T23:03:59.085Z,35.97
2018-12-03T23:06:34.688Z,26.27
2018-12-03T23:09:09.844Z,25.60
2018-12-03T23:11:43.686Z,29.77
2018-12-03T23:14:17.150Z,26.80
2018-12-03T23:16:54.386Z,32.37
2018-12-03T23:19:29.098Z,29.80
2018-12-03T23:22:02.743Z,23.63
2018-12-03T23:24:36.580Z,18.90
2018-12-03T23:27:10.311Z,22.87
2018-12-03T23:29:45.279Z,16.43
2018-12-03T23:32:19.058Z,16.63
2018-12-03T23:34:52.173Z,16.30
2018-12-03T23:37:25.692Z,19.47
2018-12-03T23:39:58.744Z,22.33
2018-12-03T23:42:31.674Z,22.77
2018-12-03T23:45:08.012Z,19.17
2018-12-03T23:47:41.142Z,18.60
2018-12-03T23:50:14.128Z,16.97
2018-12-03T23:52:47.696Z,18.57
2018-12-03T23:55:20.715Z,19.33
2018-12-03T23:57:53.633Z,9.90
